createdAt,value
2022-08-03T00:01:25.052Z,34.11
2022-08-03T00:03:51.783Z,34.41
2022-08-03T00:06:18.456Z,34.31
2022-08-03T00:08:45.266Z,34.12
2022-08-03T00:11:12.045Z,34.49
2022-08-03T00:13:39.127Z,34.59
2022-08-03T00:16:05.928Z,34.60
2022-08-03T00:18:32.725Z,34.43
2022-08-03T00:20:59.566Z,34.41
2022-08-03T00:23:29.421Z,34.83
2022-08-03T00:26:13.813Z,34.96
2022-08-03T00:28:40.580Z,35.49
2022-08-03T00:31:07.305Z,35.44
2022-08-03T00:33:59.061Z,35.15
2022-08-03T00:36:20.897Z,35.55
2022-08-03T00:38:47.587Z,35.55
2022-08-03T00:41:15.737Z,36.17
2022-08-03T00:43:42.536Z,35.73
2022-08-03T00:46:09.354Z,35.82
2022-08-03T00:48:36.012Z,36.01
2022-08-03T00:51:03.088Z,36.05
2022-08-03T00:53:30.123Z,36.99
2022-08-03T00:55:56.976Z,37.19
2022-08-03T00:58:24.451Z,36.83
2022-08-03T01:00:51.435Z,37.11
2022-08-03T01:03:18.083Z,37.31
2022-08-03T01:06:18.399Z,37.53
2022-08-03T01:09:14.826Z,38.06
2022-08-03T01:12:07.945Z,38.05
2022-08-03T01:14:41.901Z,37.65
2022-08-03T01:17:29.133Z,37.74
2022-08-03T01:20:10.628Z,38.41
2022-08-03T01:22:45.073Z,38.40
2022-08-03T01:25:33.105Z,38.37
2022-08-03T01:28:23.537Z,38.21
2022-08-03T01:30:53.479Z,37.79
2022-08-03T01:33:32.256Z,37.74
2022-08-03T01:36:02.497Z,38.12
2022-08-03T01:38:34.171Z,37.56
2022-08-03T01:41:07.536Z,37.78
2022-08-03T01:44:27.592Z,37.90
2022-08-03T01:46:25.880Z,38.03
2022-08-03T01:48:55.212Z,38.09
2022-08-03T01:51:23.104Z,38.07
2022-08-03T01:53:54.835Z,38.36
2022-08-03T01:56:24.907Z,38.36
2022-08-03T01:58:53.842Z,38.23
2022-08-03T02:01:22.776Z,38.32
2022-08-03T02:03:59.805Z,38.01
2022-08-03T02:06:59.958Z,38.26
2022-08-03T02:09:19.470Z,38.50
2022-08-03T02:11:47.388Z,38.49
2022-08-03T02:14:15.232Z,38.35
2022-08-03T02:16:43.866Z,38.16
2022-08-03T02:19:11.818Z,37.97
2022-08-03T02:21:57.408Z,38.35
2022-08-03T02:24:26.661Z,38.28
2022-08-03T02:26:56.614Z,38.15
2022-08-03T02:29:39.653Z,37.95
2022-08-03T02:32:14.283Z,38.50
2022-08-03T02:34:45.155Z,38.46
2022-08-03T02:37:13.491Z,38.01
2022-08-03T02:39:42.569Z,38.24
2022-08-03T02:42:12.158Z,37.97
2022-08-03T02:44:43.735Z,37.96
2022-08-03T02:47:11.914Z,38.36
2022-08-03T02:49:51.577Z,37.93
2022-08-03T02:52:24.432Z,37.97
2022-08-03T02:54:55.369Z,37.89
2022-08-03T02:57:24.969Z,37.84
2022-08-03T02:59:53.412Z,38.18
2022-08-03T03:02:21.095Z,38.02
2022-08-03T03:05:52.072Z,38.33
2022-08-03T03:07:51.338Z,38.59
2022-08-03T03:10:20.156Z,38.68
2022-08-03T03:12:48.338Z,38.85
2022-08-03T03:15:15.069Z,38.48
2022-08-03T03:17:44.270Z,38.99
2022-08-03T03:20:12.152Z,38.53
2022-08-03T03:22:40.230Z,38.87
2022-08-03T03:25:13.278Z,39.01
2022-08-03T03:27:40.655Z,38.57
2022-08-03T03:30:08.173Z,39.17
2022-08-03T03:32:37.020Z,38.85
2022-08-03T03:35:05.096Z,39.27
2022-08-03T03:37:31.770Z,39.11
2022-08-03T03:39:58.767Z,39.01
2022-08-03T03:42:26.083Z,39.15
2022-08-03T03:44:52.947Z,39.17
2022-08-03T03:47:32.373Z,39.59
2022-08-03T03:50:00.215Z,39.78
2022-08-03T03:52:26.994Z,39.71
2022-08-03T03:54:57.554Z,39.64
2022-08-03T03:57:27.918Z,39.50
2022-08-03T03:59:54.595Z,39.41
2022-08-03T04:02:21.511Z,39.74
2022-08-03T04:05:06.650Z,39.68
2022-08-03T04:08:14.674Z,39.98
2022-08-03T04:10:59.895Z,40.34
2022-08-03T04:13:33.830Z,40.47
2022-08-03T04:16:01.974Z,40.48
2022-08-03T04:18:31.753Z,40.55
2022-08-03T04:21:03.615Z,40.36
2022-08-03T04:23:34.938Z,39.88
2022-08-03T04:26:04.900Z,40.63
2022-08-03T04:28:33.394Z,41.00
2022-08-03T04:31:03.060Z,41.43
2022-08-03T04:33:32.452Z,41.84
2022-08-03T04:36:03.962Z,41.83
2022-08-03T04:38:39.878Z,41.70
2022-08-03T04:41:08.014Z,41.84
2022-08-03T04:43:36.283Z,41.84
2022-08-03T04:46:04.620Z,41.88
2022-08-03T04:48:31.643Z,42.29
2022-08-03T04:50:58.568Z,42.15
2022-08-03T04:53:25.331Z,42.04
2022-08-03T04:55:52.086Z,42.33
2022-08-03T04:58:18.811Z,42.30
2022-08-03T05:00:45.808Z,42.21
2022-08-03T05:03:20.468Z,42.07
2022-08-03T05:05:53.347Z,42.07
2022-08-03T05:08:29.528Z,41.90
2022-08-03T05:10:58.900Z,41.07
2022-08-03T05:13:26.756Z,40.70
2022-08-03T05:15:53.811Z,39.89
2022-08-03T05:18:20.976Z,40.24
2022-08-03T05:20:47.936Z,39.98
2022-08-03T05:23:18.054Z,39.54
2022-08-03T05:25:49.594Z,39.00
2022-08-03T05:28:17.204Z,39.16
2022-08-03T05:30:44.040Z,38.95
2022-08-03T05:33:11.220Z,38.85
2022-08-03T05:35:57.234Z,38.73
2022-08-03T05:38:28.841Z,38.49
2022-08-03T05:41:21.089Z,38.05
2022-08-03T05:43:48.097Z,38.34
2022-08-03T05:46:15.282Z,38.08
2022-08-03T05:48:43.300Z,38.21
2022-08-03T05:51:11.971Z,37.60
2022-08-03T05:53:42.268Z,37.60
2022-08-03T05:56:17.739Z,37.53
2022-08-03T05:58:47.093Z,37.79
2022-08-03T06:01:15.086Z,37.52
2022-08-03T06:03:42.120Z,37.23
2022-08-03T06:06:08.887Z,37.43
2022-08-03T06:08:35.808Z,37.40
2022-08-03T06:11:05.873Z,37.27
2022-08-03T06:13:32.927Z,36.82
2022-08-03T06:16:00.179Z,36.73
2022-08-03T06:18:26.970Z,36.21
2022-08-03T06:20:54.214Z,36.35
2022-08-03T06:23:25.323Z,35.83
2022-08-03T06:26:09.833Z,36.33
2022-08-03T06:28:53.165Z,36.49
2022-08-03T06:31:32.326Z,36.24
2022-08-03T06:34:33.975Z,35.94
2022-08-03T06:36:50.079Z,35.88
2022-08-03T06:39:18.523Z,36.42
2022-08-03T06:41:45.565Z,36.03
2022-08-03T06:44:12.909Z,35.71
2022-08-03T06:46:39.849Z,35.88
2022-08-03T06:49:07.345Z,35.95
2022-08-03T06:52:03.132Z,35.28
2022-08-03T06:54:22.294Z,35.53
2022-08-03T06:56:49.023Z,35.32
2022-08-03T07:00:06.208Z,35.43
2022-08-03T07:02:03.039Z,34.97
2022-08-03T07:04:29.952Z,35.15
2022-08-03T07:06:57.339Z,35.70
2022-08-03T07:09:24.455Z,35.74
2022-08-03T07:11:51.110Z,35.27
2022-08-03T07:14:17.939Z,35.30
2022-08-03T07:16:44.680Z,35.47
2022-08-03T07:19:12.273Z,35.42
2022-08-03T07:21:38.983Z,34.96
2022-08-03T07:24:06.284Z,35.31
2022-08-03T07:26:33.097Z,34.99
2022-08-03T07:29:01.126Z,34.08
2022-08-03T07:31:27.867Z,34.33
2022-08-03T07:34:00.988Z,34.52
2022-08-03T07:36:27.694Z,34.75
2022-08-03T07:38:54.424Z,34.51
2022-08-03T07:41:21.196Z,34.61
2022-08-03T07:43:47.910Z,33.82
2022-08-03T07:46:15.944Z,33.61
2022-08-03T07:48:42.611Z,33.45
2022-08-03T07:51:09.256Z,33.46
2022-08-03T07:53:37.880Z,33.19
2022-08-03T07:56:15.018Z,33.31
2022-08-03T07:58:41.877Z,32.76
2022-08-03T08:01:09.238Z,32.39
2022-08-03T08:03:52.305Z,32.30
2022-08-03T08:06:21.734Z,31.90
2022-08-03T08:08:48.748Z,31.07
2022-08-03T08:11:15.757Z,30.52
2022-08-03T08:13:42.461Z,30.37
2022-08-03T08:16:09.154Z,30.25
2022-08-03T08:18:35.961Z,29.69
2022-08-03T08:21:03.520Z,29.19
2022-08-03T08:23:42.076Z,28.88
2022-08-03T08:26:10.565Z,28.16
2022-08-03T08:28:37.462Z,22.70
2022-08-03T08:31:04.391Z,18.70
2022-08-03T08:36:18.114Z,13.12
2022-08-03T08:38:45.693Z,11.52
2022-08-03T08:41:14.579Z,10.63
2022-08-03T08:43:42.124Z,9.40
2022-08-03T08:46:22.810Z,9.04
2022-08-03T08:48:52.396Z,8.05
2022-08-03T08:51:21.544Z,7.76
2022-08-03T08:53:52.265Z,7.69
2022-08-03T08:56:22.870Z,6.82
2022-08-03T08:58:53.809Z,7.19
2022-08-03T09:01:21.841Z,6.85
2022-08-03T09:03:48.878Z,6.60
2022-08-03T09:06:16.404Z,6.49
2022-08-03T09:08:43.357Z,6.74
2022-08-03T09:11:12.095Z,6.11
2022-08-03T09:13:39.565Z,5.80
2022-08-03T09:16:13.574Z,6.16
2022-08-03T09:18:42.210Z,6.23
2022-08-03T09:21:32.935Z,5.79
2022-08-03T09:24:04.170Z,5.29
2022-08-03T09:26:33.738Z,4.71
2022-08-03T09:29:07.121Z,4.63
2022-08-03T09:31:46.567Z,4.48
2022-08-03T09:34:16.302Z,4.50
2022-08-03T09:36:51.080Z,3.63
2022-08-03T09:39:41.302Z,3.75
2022-08-03T09:42:15.570Z,4.25
2022-08-03T09:44:47.845Z,4.38
2022-08-03T09:47:17.875Z,3.66
2022-08-03T09:49:59.063Z,3.51
2022-08-03T09:52:50.139Z,3.47
2022-08-03T09:56:33.008Z,3.92
2022-08-03T09:58:10.429Z,4.25
2022-08-03T10:01:04.261Z,4.21
2022-08-03T10:03:35.071Z,3.91
2022-08-03T10:06:22.312Z,3.71
2022-08-03T10:09:06.957Z,3.47
2022-08-03T10:11:41.236Z,3.17
2022-08-03T10:14:11.673Z,3.10
2022-08-03T10:16:41.344Z,3.00
2022-08-03T10:19:09.778Z,3.15
2022-08-03T10:21:40.688Z,3.18
2022-08-03T10:24:11.126Z,3.00
2022-08-03T10:26:49.507Z,2.71
2022-08-03T10:29:28.193Z,2.83
2022-08-03T10:31:58.876Z,2.70
2022-08-03T10:34:35.052Z,2.69
2022-08-03T10:37:08.470Z,3.21
2022-08-03T10:39:36.227Z,3.29
2022-08-03T10:42:03.771Z,2.99
2022-08-03T10:44:40.048Z,2.92
2022-08-03T10:47:10.353Z,2.80
2022-08-03T10:49:38.256Z,2.71
2022-08-03T10:52:10.439Z,2.37
2022-08-03T10:55:07.709Z,3.28
2022-08-03T10:57:49.928Z,2.99
2022-08-03T11:00:24.538Z,2.97
2022-08-03T11:03:16.675Z,2.72
2022-08-03T11:05:44.991Z,2.80
2022-08-03T11:08:19.505Z,2.88
2022-08-03T11:10:47.361Z,3.08
2022-08-03T11:13:39.088Z,3.42
2022-08-03T11:16:22.265Z,3.41
2022-08-03T11:19:17.697Z,3.58
2022-08-03T11:21:50.689Z,3.34
2022-08-03T11:24:57.311Z,3.37
2022-08-03T11:27:28.196Z,3.50
2022-08-03T11:29:59.207Z,3.17
2022-08-03T11:32:38.294Z,3.49
2022-08-03T11:35:16.439Z,3.50
2022-08-03T11:38:04.866Z,3.41
2022-08-03T11:40:48.461Z,3.91
2022-08-03T11:43:31.308Z,3.92
2022-08-03T11:46:28.546Z,3.82
2022-08-03T11:49:09.881Z,3.95
2022-08-03T11:51:40.248Z,4.89
2022-08-03T11:54:07.710Z,4.90
2022-08-03T11:56:53.456Z,4.78
2022-08-03T11:59:32.756Z,5.03
2022-08-03T12:02:13.457Z,4.78
2022-08-03T12:04:53.409Z,5.31
2022-08-03T12:08:02.713Z,5.19
2022-08-03T12:10:07.633Z,4.47
2022-08-03T12:12:34.583Z,5.74
2022-08-03T12:15:01.452Z,5.72
2022-08-03T12:17:37.735Z,6.15
2022-08-03T12:20:07.052Z,7.28
2022-08-03T12:22:40.862Z,9.61
2022-08-03T12:25:09.018Z,10.46
2022-08-03T12:27:36.291Z,11.87
2022-08-03T12:30:05.072Z,12.79
2022-08-03T12:32:31.911Z,13.28
2022-08-03T12:35:01.718Z,13.93
2022-08-03T12:37:29.457Z,14.81
2022-08-03T12:40:10.256Z,14.74
2022-08-03T12:42:39.367Z,15.71
2022-08-03T12:45:25.788Z,16.02
2022-08-03T12:48:02.435Z,15.97
2022-08-03T12:50:32.131Z,16.67
2022-08-03T12:53:04.684Z,16.62
2022-08-03T12:55:57.200Z,16.64
2022-08-03T12:58:51.433Z,16.75
2022-08-03T13:01:18.276Z,16.84
2022-08-03T13:03:50.514Z,17.33
2022-08-03T13:06:22.876Z,17.27
2022-08-03T13:08:51.599Z,17.37
2022-08-03T13:11:57.995Z,18.05
2022-08-03T13:14:16.831Z,18.55
2022-08-03T13:16:48.343Z,18.24
2022-08-03T13:19:16.013Z,18.74
2022-08-03T13:22:03.703Z,18.54
2022-08-03T13:24:31.498Z,18.82
2022-08-03T13:26:59.443Z,18.92
2022-08-03T13:29:26.261Z,18.94
2022-08-03T13:31:53.201Z,18.91
2022-08-03T13:34:23.505Z,18.72
2022-08-03T13:37:08.328Z,18.71
2022-08-03T13:39:57.494Z,18.85
2022-08-03T13:42:23.072Z,19.18
2022-08-03T13:44:49.748Z,18.31
2022-08-03T13:47:17.236Z,18.37
2022-08-03T13:49:54.289Z,18.87
2022-08-03T13:52:37.979Z,18.63
2022-08-03T13:55:06.708Z,18.59
2022-08-03T13:58:04.251Z,19.04
2022-08-03T14:00:27.251Z,19.16
2022-08-03T14:03:02.977Z,18.58
2022-08-03T14:05:32.090Z,18.31
2022-08-03T14:08:04.602Z,18.71
2022-08-03T14:10:33.835Z,18.22
2022-08-03T14:13:01.045Z,17.80
2022-08-03T14:15:28.747Z,18.55
2022-08-03T14:17:56.445Z,18.46
2022-08-03T14:20:37.274Z,18.60
2022-08-03T14:23:07.085Z,18.30
2022-08-03T14:25:43.262Z,18.39
2022-08-03T14:28:18.832Z,18.65
2022-08-03T14:30:46.245Z,17.93
2022-08-03T14:33:12.959Z,17.51
2022-08-03T14:35:39.951Z,17.82
2022-08-03T14:38:06.762Z,17.53
2022-08-03T14:40:46.344Z,17.30
2022-08-03T14:43:13.351Z,17.46
2022-08-03T14:45:41.243Z,17.77
2022-08-03T14:50:29.466Z,17.99
2022-08-03T14:50:55.439Z,17.51
2022-08-03T14:53:23.158Z,17.07
2022-08-03T14:55:51.948Z,17.68
2022-08-03T14:58:23.527Z,17.13
2022-08-03T15:00:51.905Z,17.28
2022-08-03T15:03:25.436Z,17.37
2022-08-03T15:05:57.319Z,16.77
2022-08-03T15:08:25.575Z,17.32
2022-08-03T15:10:54.038Z,17.35
2022-08-03T15:13:21.146Z,17.81
2022-08-03T15:15:48.531Z,17.52
2022-08-03T15:18:15.708Z,16.81
2022-08-03T15:20:45.394Z,17.21
2022-08-03T15:23:14.461Z,16.78
2022-08-03T15:26:03.302Z,17.27
2022-08-03T15:28:29.148Z,18.00
2022-08-03T15:30:55.874Z,17.55
2022-08-03T15:33:22.640Z,17.42
2022-08-03T15:35:49.931Z,17.02
2022-08-03T15:38:17.037Z,16.55
2022-08-03T15:40:43.757Z,16.58
2022-08-03T15:43:10.749Z,16.92
2022-08-03T15:45:37.618Z,17.12
2022-08-03T15:48:07.426Z,16.38
2022-08-03T15:50:34.611Z,16.86
2022-08-03T15:53:01.308Z,16.70
2022-08-03T15:55:28.092Z,17.15
2022-08-03T15:59:09.885Z,17.07
2022-08-03T16:00:43.025Z,17.62
2022-08-03T16:03:10.536Z,17.43
2022-08-03T16:05:37.336Z,17.75
2022-08-03T16:08:05.636Z,17.58
2022-08-03T16:10:34.623Z,18.29
2022-08-03T16:13:01.356Z,18.42
2022-08-03T16:15:28.147Z,18.24
2022-08-03T16:17:55.205Z,18.36
2022-08-03T16:20:31.473Z,18.09
2022-08-03T16:23:09.154Z,18.00
2022-08-03T16:25:39.511Z,18.18
2022-08-03T16:28:13.128Z,17.60
2022-08-03T16:30:43.306Z,17.58
2022-08-03T16:33:11.161Z,17.72
2022-08-03T16:35:38.318Z,17.42
2022-08-03T16:38:09.975Z,17.50
2022-08-03T16:40:38.056Z,17.48
2022-08-03T16:43:18.252Z,17.47
2022-08-03T16:45:47.390Z,17.90
2022-08-03T16:48:18.748Z,17.64
2022-08-03T16:50:46.006Z,17.30
2022-08-03T16:53:16.819Z,17.63
2022-08-03T16:55:53.093Z,17.54
2022-08-03T16:58:34.837Z,17.61
2022-08-03T17:01:22.477Z,17.74
2022-08-03T17:04:04.692Z,17.76
2022-08-03T17:06:37.418Z,17.67
2022-08-03T17:09:11.657Z,18.25
2022-08-03T17:11:43.989Z,17.45
2022-08-03T17:14:22.077Z,18.40
2022-08-03T17:16:52.791Z,18.00
2022-08-03T17:19:23.001Z,18.17
2022-08-03T17:21:59.844Z,18.46
2022-08-03T17:24:44.000Z,18.04
2022-08-03T17:28:48.176Z,19.00
2022-08-03T17:30:15.819Z,18.55
2022-08-03T17:32:56.856Z,19.66
2022-08-03T17:35:24.435Z,19.85
2022-08-03T17:38:03.822Z,18.82
2022-08-03T17:40:32.619Z,19.54
2022-08-03T17:43:02.492Z,19.22
2022-08-03T17:45:52.892Z,19.16
2022-08-03T17:48:24.860Z,19.43
2022-08-03T17:51:06.570Z,19.50
2022-08-03T17:53:38.506Z,19.78
2022-08-03T17:56:44.912Z,19.86
2022-08-03T17:59:50.729Z,20.42
2022-08-03T18:02:52.101Z,20.50
2022-08-03T18:05:22.022Z,20.55
2022-08-03T18:07:59.539Z,20.16
2022-08-03T18:10:34.975Z,20.60
2022-08-03T18:13:10.344Z,20.54
2022-08-03T18:16:02.401Z,20.52
2022-08-03T18:18:36.576Z,20.20
2022-08-03T18:21:09.349Z,20.41
2022-08-03T18:23:44.783Z,20.69
2022-08-03T18:26:17.540Z,21.06
2022-08-03T18:28:45.094Z,21.07
2022-08-03T18:31:59.933Z,21.08
2022-08-03T18:34:17.564Z,20.76
2022-08-03T18:36:52.245Z,21.02
2022-08-03T18:39:22.663Z,21.85
2022-08-03T18:41:49.344Z,21.59
2022-08-03T18:44:45.667Z,21.70
2022-08-03T18:47:23.515Z,21.65
2022-08-03T18:49:51.934Z,22.17
2022-08-03T18:52:52.864Z,22.35
2022-08-03T18:55:33.344Z,22.16
2022-08-03T18:58:28.708Z,22.45
2022-08-03T19:01:06.283Z,22.83
2022-08-03T19:04:05.408Z,22.49
2022-08-03T19:06:38.518Z,23.47
2022-08-03T19:09:09.520Z,23.68
2022-08-03T19:12:12.719Z,23.47
2022-08-03T19:14:39.221Z,23.45
2022-08-03T19:17:10.345Z,23.33
2022-08-03T19:19:43.667Z,23.37
2022-08-03T19:22:19.730Z,23.85
2022-08-03T19:24:49.116Z,23.39
2022-08-03T19:27:16.265Z,24.11
2022-08-03T19:29:59.346Z,23.40
2022-08-03T19:32:32.456Z,23.85
2022-08-03T19:35:02.922Z,23.52
2022-08-03T19:37:38.006Z,23.94
2022-08-03T19:40:06.044Z,23.66
2022-08-03T19:42:41.089Z,24.08
2022-08-03T19:45:13.901Z,24.52
2022-08-03T19:48:10.102Z,24.86
2022-08-03T19:50:44.617Z,24.35
2022-08-03T19:53:13.041Z,25.19
2022-08-03T19:55:48.822Z,24.63
2022-08-03T19:58:24.332Z,25.21
2022-08-03T20:00:55.867Z,24.97
2022-08-03T20:03:26.305Z,25.16
2022-08-03T20:05:54.153Z,25.05
2022-08-03T20:08:22.195Z,25.17
2022-08-03T20:10:51.344Z,25.21
2022-08-03T20:13:19.533Z,25.78
2022-08-03T20:15:47.123Z,25.88
2022-08-03T20:21:06.082Z,26.08
2022-08-03T20:24:03.381Z,26.20
2022-08-03T20:26:31.675Z,26.45
2022-08-03T20:29:09.025Z,25.47
2022-08-03T20:31:37.606Z,25.66
2022-08-03T20:34:06.317Z,26.13
2022-08-03T20:36:33.139Z,26.28
2022-08-03T20:39:00.021Z,26.00
2022-08-03T20:41:27.037Z,26.46
2022-08-03T20:43:54.344Z,26.64
2022-08-03T20:46:31.945Z,26.96
2022-08-03T20:49:04.842Z,26.81
2022-08-03T20:51:50.627Z,27.07
2022-08-03T20:54:30.918Z,27.39
2022-08-03T20:57:03.697Z,27.59
2022-08-03T20:59:46.922Z,26.78
2022-08-03T21:02:29.545Z,27.21
2022-08-03T21:05:08.455Z,27.23
2022-08-03T21:08:06.160Z,27.52
2022-08-03T21:10:38.239Z,27.84
2022-08-03T21:13:08.339Z,25.41
2022-08-03T21:13:17.454Z,27.79
2022-08-03T21:16:11.263Z,28.02
2022-08-03T21:18:58.000Z,28.26
2022-08-03T21:21:30.645Z,28.77
2022-08-03T21:23:59.641Z,28.83
2022-08-03T21:26:27.613Z,28.27
2022-08-03T21:28:56.834Z,29.00
2022-08-03T21:31:26.476Z,28.57
2022-08-03T21:34:03.068Z,28.51
2022-08-03T21:36:32.401Z,28.16
2022-08-03T21:38:59.836Z,28.78
2022-08-03T21:41:28.371Z,29.31
2022-08-03T21:43:55.115Z,29.24
2022-08-03T21:46:23.288Z,28.95
2022-08-03T21:48:55.545Z,28.58
2022-08-03T21:51:25.233Z,29.24
2022-08-03T21:54:00.415Z,28.86
2022-08-03T21:56:42.418Z,29.23
2022-08-03T21:59:18.105Z,29.48
2022-08-03T22:01:49.324Z,29.38
2022-08-03T22:04:55.032Z,29.47
2022-08-03T22:07:08.233Z,28.90
2022-08-03T22:09:35.716Z,29.25
2022-08-03T22:12:03.188Z,29.51
2022-08-03T22:14:32.724Z,29.06
2022-08-03T22:17:00.657Z,29.24
2022-08-03T22:19:30.187Z,29.22
2022-08-03T22:21:58.245Z,29.33
2022-08-03T22:24:29.063Z,29.36
2022-08-03T22:27:14.377Z,29.23
2022-08-03T22:29:42.232Z,29.47
2022-08-03T22:32:10.402Z,30.28
2022-08-03T22:34:37.889Z,30.10
2022-08-03T22:37:06.310Z,30.03
2022-08-03T22:39:34.275Z,29.93
2022-08-03T22:42:05.506Z,30.23
2022-08-03T22:44:32.493Z,30.42
2022-08-03T22:46:59.626Z,29.80
2022-08-03T22:49:28.544Z,30.28
2022-08-03T22:51:56.523Z,30.55
2022-08-03T22:54:23.657Z,30.56
2022-08-03T22:56:51.373Z,30.16
2022-08-03T22:59:41.042Z,30.65
2022-08-03T23:02:20.230Z,31.00
2022-08-03T23:04:55.015Z,30.45
2022-08-03T23:07:29.686Z,30.74
2022-08-03T23:09:58.092Z,30.64
2022-08-03T23:12:25.182Z,30.37
2022-08-03T23:14:54.614Z,30.41
2022-08-03T23:17:23.247Z,30.48
2022-08-03T23:19:53.975Z,30.85
2022-08-03T23:22:30.062Z,30.66
2022-08-03T23:24:58.908Z,30.68
2022-08-03T23:27:27.829Z,31.02
2022-08-03T23:29:58.384Z,30.89
2022-08-03T23:32:30.393Z,31.30
2022-08-03T23:35:21.188Z,31.48
2022-08-03T23:38:04.219Z,31.49
2022-08-03T23:40:36.788Z,31.34
2022-08-03T23:43:05.126Z,31.92
2022-08-03T23:45:35.831Z,31.32
2022-08-03T23:48:02.585Z,31.54
2022-08-03T23:50:40.924Z,31.63
2022-08-03T23:53:26.453Z,32.20
2022-08-03T23:56:00.449Z,32.29
2022-08-03T23:58:52.963Z,32.13
